createdAt,value
2018-07-19T00:01:27.492Z,25.80
2018-07-19T00:03:57.639Z,25.80
2018-07-19T00:06:27.232Z,25.80
2018-07-19T00:08:57.667Z,25.80
2018-07-19T00:11:27.966Z,25.70
2018-07-19T00:13:58.391Z,25.70
2018-07-19T00:16:28.095Z,25.60
2018-07-19T00:18:58.264Z,25.60
2018-07-19T00:21:28.794Z,25.60
2018-07-19T00:23:58.803Z,25.60
2018-07-19T00:26:29.273Z,25.60
2018-07-19T00:28:59.719Z,25.40
2018-07-19T00:31:29.831Z,25.30
2018-07-19T00:33:59.511Z,25.20
2018-07-19T00:36:29.250Z,25.10
2018-07-19T00:38:59.196Z,25.10
2018-07-19T00:41:30.206Z,25.20
2018-07-19T00:44:00.549Z,25.30
2018-07-19T00:46:30.148Z,25.30
2018-07-19T00:49:00.563Z,25.30
2018-07-19T00:51:30.353Z,25.20
2018-07-19T00:54:00.407Z,25.20
2018-07-19T00:56:31.776Z,25.30
2018-07-19T00:59:02.076Z,25.30
2018-07-19T01:01:31.844Z,25.30
2018-07-19T01:04:02.202Z,25.30
2018-07-19T01:06:32.731Z,25.30
2018-07-19T01:09:02.480Z,25.30
2018-07-19T01:11:32.072Z,25.30
2018-07-19T01:14:01.973Z,25.30
2018-07-19T01:16:32.303Z,25.30
2018-07-19T01:19:01.832Z,25.30
2018-07-19T01:21:32.134Z,25.30
2018-07-19T01:24:02.613Z,25.20
2018-07-19T01:26:32.673Z,25.30
2018-07-19T01:29:02.752Z,25.30
2018-07-19T01:31:32.333Z,25.20
2018-07-19T01:34:01.939Z,25.20
2018-07-19T01:36:31.541Z,25.20
2018-07-19T01:39:01.217Z,25.30
2018-07-19T01:42:12.026Z,25.30
2018-07-19T01:44:41.796Z,25.20
2018-07-19T01:47:11.900Z,25.20
2018-07-19T01:49:43.917Z,25.20
2018-07-19T01:52:14.415Z,25.20
2018-07-19T01:54:44.727Z,25.10
2018-07-19T01:57:16.177Z,25.10
2018-07-19T01:59:47.183Z,25.20
2018-07-19T02:02:18.652Z,25.00
2018-07-19T02:04:49.240Z,24.90
2018-07-19T02:07:18.742Z,25.00
2018-07-19T02:09:48.316Z,25.00
2018-07-19T02:12:18.611Z,25.00
2018-07-19T02:14:48.304Z,25.00
2018-07-19T02:17:18.272Z,25.00
2018-07-19T02:19:48.772Z,24.90
2018-07-19T02:22:18.717Z,24.90
2018-07-19T02:24:48.436Z,25.00
2018-07-19T02:27:18.777Z,25.00
2018-07-19T02:29:50.064Z,25.00
2018-07-19T02:32:19.756Z,24.90
2018-07-19T02:34:49.593Z,24.80
2018-07-19T02:37:19.215Z,24.90
2018-07-19T02:39:49.484Z,25.00
2018-07-19T02:42:20.455Z,25.00
2018-07-19T02:44:51.261Z,24.90
2018-07-19T02:47:20.773Z,25.00
2018-07-19T02:49:51.095Z,25.00
2018-07-19T02:52:21.621Z,24.90
2018-07-19T02:54:52.217Z,24.90
2018-07-19T02:57:22.678Z,24.80
2018-07-19T03:02:21.832Z,24.70
2018-07-19T03:04:51.531Z,24.70
2018-07-19T03:07:21.307Z,24.70
2018-07-19T03:09:50.891Z,24.80
2018-07-19T03:12:21.108Z,24.80
2018-07-19T03:14:51.538Z,24.80
2018-07-19T03:17:22.080Z,24.90
2018-07-19T03:19:52.832Z,24.90
2018-07-19T03:22:23.359Z,24.80
2018-07-19T03:24:54.203Z,24.60
2018-07-19T03:27:24.624Z,24.50
2018-07-19T03:29:54.255Z,24.50
2018-07-19T03:32:24.560Z,24.50
2018-07-19T03:34:54.720Z,24.50
2018-07-19T03:37:25.392Z,24.40
2018-07-19T03:39:55.836Z,24.50
2018-07-19T03:42:25.924Z,24.60
2018-07-19T03:44:56.621Z,24.60
2018-07-19T03:47:26.708Z,24.70
2018-07-19T03:49:56.420Z,24.70
2018-07-19T03:54:55.855Z,24.80
2018-07-19T03:57:26.235Z,24.80
2018-07-19T03:59:55.976Z,24.80
2018-07-19T04:02:26.379Z,24.80
2018-07-19T04:04:56.831Z,24.80
2018-07-19T04:07:26.411Z,24.90
2018-07-19T04:09:56.640Z,24.90
2018-07-19T04:12:27.103Z,24.90
2018-07-19T04:14:56.719Z,24.90
2018-07-19T04:17:26.260Z,24.90
2018-07-19T04:19:56.278Z,24.80
2018-07-19T04:22:26.318Z,24.80
2018-07-19T04:24:56.832Z,24.90
2018-07-19T04:27:26.678Z,25.00
2018-07-19T04:29:57.207Z,25.10
2018-07-19T04:34:56.419Z,25.20
2018-07-19T04:37:26.636Z,25.20
2018-07-19T04:39:56.841Z,25.30
2018-07-19T04:42:26.641Z,25.40
2018-07-19T04:44:57.270Z,25.50
2018-07-19T04:47:27.106Z,25.50
2018-07-19T04:49:56.739Z,25.40
2018-07-19T04:52:26.349Z,25.60
2018-07-19T04:54:56.704Z,25.70
2018-07-19T04:57:27.572Z,25.80
2018-07-19T04:59:58.240Z,25.90
2018-07-19T05:02:27.868Z,26.10
2018-07-19T05:04:58.478Z,26.10
2018-07-19T05:09:57.840Z,26.30
2018-07-19T05:12:28.120Z,26.40
2018-07-19T05:14:58.752Z,26.40
2018-07-19T05:17:28.224Z,26.50
2018-07-19T05:19:59.526Z,26.50
2018-07-19T05:22:29.185Z,26.50
2018-07-19T05:24:58.927Z,26.70
2018-07-19T05:27:29.252Z,26.80
2018-07-19T05:29:59.818Z,26.90
2018-07-19T05:32:29.592Z,26.80
2018-07-19T05:34:59.366Z,26.90
2018-07-19T05:37:29.173Z,27.00
2018-07-19T05:39:58.699Z,27.10
2018-07-19T05:42:28.393Z,27.10
2018-07-19T05:44:58.259Z,27.20
2018-07-19T05:47:28.132Z,27.30
2018-07-19T05:49:59.000Z,27.20
2018-07-19T05:52:28.627Z,27.40
2018-07-19T05:54:59.127Z,27.60
2018-07-19T05:57:28.820Z,27.70
2018-07-19T05:59:58.312Z,27.80
2018-07-19T06:02:28.288Z,27.80
2018-07-19T06:04:59.269Z,27.90
2018-07-19T06:07:29.340Z,27.80
2018-07-19T06:09:58.891Z,27.90
2018-07-19T06:12:28.847Z,28.00
2018-07-19T06:14:58.472Z,28.20
2018-07-19T06:17:28.047Z,28.40
2018-07-19T06:19:58.449Z,28.40
2018-07-19T06:22:28.676Z,28.60
2018-07-19T06:24:58.423Z,28.60
2018-07-19T06:27:28.980Z,28.60
2018-07-19T06:29:58.740Z,28.60
2018-07-19T06:32:28.808Z,28.60
2018-07-19T06:34:59.404Z,28.80
2018-07-19T06:37:29.520Z,29.10
2018-07-19T06:40:00.240Z,29.10
2018-07-19T06:42:30.001Z,29.00
2018-07-19T06:44:59.915Z,29.00
2018-07-19T06:47:29.826Z,29.10
2018-07-19T06:50:01.205Z,28.90
2018-07-19T06:52:40.315Z,29.00
2018-07-19T06:55:16.478Z,29.20
2018-07-19T06:57:46.391Z,29.40
2018-07-19T07:00:16.273Z,29.20
2018-07-19T07:02:45.923Z,29.30
2018-07-19T07:05:18.422Z,29.20
2018-07-19T07:07:48.784Z,29.30
2018-07-19T07:10:18.756Z,29.30
2018-07-19T07:15:18.177Z,29.60
2018-07-19T07:17:47.941Z,29.60
2018-07-19T07:20:19.091Z,29.60
2018-07-19T07:22:49.664Z,29.60
2018-07-19T07:25:20.899Z,29.70
2018-07-19T07:27:50.829Z,29.70
2018-07-19T07:30:20.476Z,29.80
2018-07-19T07:32:55.283Z,29.80
2018-07-19T07:35:25.224Z,29.70
2018-07-19T07:37:58.520Z,29.60
2018-07-19T07:40:28.311Z,30.00
2018-07-19T07:45:30.603Z,30.30
2018-07-19T07:48:00.475Z,30.40
2018-07-19T07:50:30.657Z,30.40
2018-07-19T07:53:00.317Z,30.40
2018-07-19T07:55:30.508Z,30.40
2018-07-19T07:58:00.668Z,30.40
2018-07-19T08:00:30.924Z,30.30
2018-07-19T08:03:06.192Z,30.50
2018-07-19T08:05:35.867Z,30.70
2018-07-19T08:08:06.279Z,30.50
2018-07-19T08:10:36.937Z,30.30
2018-07-19T08:13:07.285Z,30.30
2018-07-19T08:15:37.596Z,30.10
2018-07-19T08:18:08.092Z,30.30
2018-07-19T08:20:38.584Z,30.70
2018-07-19T08:23:09.173Z,31.00
2018-07-19T08:25:38.884Z,31.30
2018-07-19T08:28:09.023Z,31.30
2018-07-19T08:30:42.295Z,31.00
2018-07-19T08:33:12.741Z,31.10
2018-07-19T08:35:42.551Z,31.20
2018-07-19T08:38:12.453Z,31.30
2018-07-19T08:40:42.045Z,31.50
2018-07-19T08:43:11.930Z,31.40
2018-07-19T08:45:41.573Z,31.40
2018-07-19T08:48:11.392Z,31.50
2018-07-19T08:50:41.891Z,31.60
2018-07-19T08:53:11.627Z,31.80
2018-07-19T08:55:41.815Z,31.90
2018-07-19T08:58:12.481Z,31.80
2018-07-19T09:00:42.396Z,31.70
2018-07-19T09:03:12.000Z,31.60
2018-07-19T09:05:42.684Z,31.90
2018-07-19T09:08:12.936Z,32.00
2018-07-19T09:10:44.076Z,32.00
2018-07-19T09:13:13.835Z,32.10
2018-07-19T09:15:43.817Z,32.00
2018-07-19T09:18:13.512Z,31.80
2018-07-19T09:20:43.507Z,31.80
2018-07-19T09:23:13.380Z,31.70
2018-07-19T09:25:43.031Z,32.00
2018-07-19T09:28:13.370Z,31.90
2018-07-19T09:30:43.932Z,31.80
2018-07-19T09:33:14.671Z,31.90
2018-07-19T09:35:44.988Z,32.00
2018-07-19T09:38:16.043Z,32.30
2018-07-19T09:40:46.852Z,32.40
2018-07-19T09:43:17.340Z,32.40
2018-07-19T09:45:47.994Z,32.20
2018-07-19T09:48:18.694Z,32.30
2018-07-19T09:50:49.055Z,32.40
2018-07-19T09:53:19.096Z,32.60
2018-07-19T09:55:48.899Z,32.60
2018-07-19T09:58:19.783Z,32.50
2018-07-19T10:00:56.829Z,32.40
2018-07-19T10:03:27.232Z,32.20
2018-07-19T10:06:00.897Z,32.00
2018-07-19T10:08:30.876Z,32.30
2018-07-19T10:11:00.968Z,32.00
2018-07-19T10:13:30.707Z,31.70
2018-07-19T10:16:00.380Z,31.40
2018-07-19T10:18:29.904Z,30.90
2018-07-19T10:20:59.510Z,30.50
2018-07-19T10:23:30.043Z,30.90
2018-07-19T10:26:00.288Z,31.20
2018-07-19T10:28:30.972Z,31.10
2018-07-19T10:31:02.219Z,31.60
2018-07-19T10:33:32.240Z,31.60
2018-07-19T10:36:02.461Z,31.40
2018-07-19T10:38:32.445Z,30.70
2018-07-19T10:41:02.300Z,30.70
2018-07-19T10:43:32.128Z,30.70
2018-07-19T10:46:01.802Z,30.10
2018-07-19T10:48:34.531Z,30.50
2018-07-19T10:51:05.137Z,31.00
2018-07-19T10:53:34.855Z,31.00
2018-07-19T10:56:04.529Z,30.60
2018-07-19T10:58:34.072Z,30.80
2018-07-19T11:01:05.272Z,30.60
2018-07-19T11:03:34.904Z,31.00
2018-07-19T11:06:05.060Z,31.60
2018-07-19T11:08:37.857Z,31.90
2018-07-19T11:13:47.609Z,31.60
2018-07-19T11:16:18.124Z,31.60
2018-07-19T11:21:16.930Z,31.30
2018-07-19T11:23:46.435Z,31.50
2018-07-19T11:26:17.080Z,31.50
2018-07-19T11:28:46.561Z,31.20
2018-07-19T11:31:18.232Z,31.00
2018-07-19T11:33:48.529Z,31.60
2018-07-19T11:36:18.510Z,32.00
2018-07-19T11:38:51.934Z,32.20
2018-07-19T11:41:21.791Z,31.90
2018-07-19T11:43:51.827Z,31.30
2018-07-19T11:46:21.523Z,31.60
2018-07-19T11:51:22.576Z,31.40
2018-07-19T11:53:54.639Z,30.90
2018-07-19T11:56:24.589Z,30.90
2018-07-19T11:58:55.878Z,31.00
2018-07-19T12:01:27.883Z,30.90
2018-07-19T12:03:57.685Z,31.10
2018-07-19T12:06:27.343Z,31.50
2018-07-19T12:08:58.761Z,31.10
2018-07-19T12:11:28.756Z,31.40
2018-07-19T12:13:58.253Z,32.30
2018-07-19T12:16:29.181Z,31.70
2018-07-19T12:19:01.220Z,31.50
2018-07-19T12:21:31.584Z,31.60
2018-07-19T12:24:01.654Z,31.80
2018-07-19T12:26:31.716Z,32.40
2018-07-19T12:29:02.775Z,32.30
2018-07-19T12:31:32.762Z,32.50
2018-07-19T12:34:03.632Z,32.80
2018-07-19T12:36:34.070Z,32.80
2018-07-19T12:39:04.227Z,32.40
2018-07-19T12:41:33.997Z,32.60
2018-07-19T12:44:03.681Z,32.70
2018-07-19T12:46:33.668Z,32.60
2018-07-19T12:49:03.901Z,32.80
2018-07-19T12:51:34.229Z,33.30
2018-07-19T12:54:03.996Z,33.40
2018-07-19T12:56:34.059Z,33.50
2018-07-19T12:59:04.830Z,33.20
2018-07-19T13:01:34.639Z,33.10
2018-07-19T13:04:04.964Z,33.40
2018-07-19T13:06:35.561Z,33.30
2018-07-19T13:09:11.780Z,33.30
2018-07-19T13:11:41.674Z,33.40
2018-07-19T13:14:13.112Z,33.20
2018-07-19T13:16:44.064Z,33.00
2018-07-19T13:19:15.177Z,33.10
2018-07-19T13:21:46.347Z,33.10
2018-07-19T13:24:16.535Z,33.30
2018-07-19T13:26:51.927Z,33.20
2018-07-19T13:29:21.836Z,32.80
2018-07-19T13:31:52.164Z,33.00
2018-07-19T13:36:56.749Z,33.30
2018-07-19T13:39:27.124Z,33.70
2018-07-19T13:41:57.445Z,33.50
2018-07-19T13:44:27.192Z,33.10
2018-07-19T13:46:56.728Z,33.50
2018-07-19T13:49:27.700Z,33.50
2018-07-19T13:51:57.392Z,33.60
2018-07-19T13:54:38.282Z,33.70
2018-07-19T13:57:07.756Z,33.40
2018-07-19T13:59:38.281Z,33.00
2018-07-19T14:02:08.420Z,33.10
2018-07-19T14:04:38.263Z,33.60
2018-07-19T14:07:07.989Z,33.90
2018-07-19T14:09:37.679Z,33.20
2018-07-19T14:12:07.467Z,33.50
2018-07-19T14:14:37.153Z,33.20
2018-07-19T14:17:07.623Z,33.10
2018-07-19T14:19:37.320Z,33.00
2018-07-19T14:22:08.040Z,33.00
2018-07-19T14:24:37.675Z,32.70
2018-07-19T14:27:08.404Z,32.50
2018-07-19T14:29:38.982Z,32.30
2018-07-19T14:32:08.931Z,31.80
2018-07-19T14:34:39.264Z,31.80
2018-07-19T14:37:10.212Z,31.70
2018-07-19T14:39:39.792Z,31.60
2018-07-19T14:42:09.535Z,31.60
2018-07-19T14:44:39.226Z,31.40
2018-07-19T14:47:09.424Z,31.20
2018-07-19T14:49:39.512Z,31.10
2018-07-19T14:52:09.335Z,31.00
2018-07-19T14:54:38.924Z,30.60
2018-07-19T14:57:08.897Z,30.50
2018-07-19T14:59:38.495Z,30.20
2018-07-19T15:02:08.299Z,30.00
2018-07-19T15:04:46.242Z,30.20
2018-07-19T15:07:18.748Z,30.30
2018-07-19T15:09:49.501Z,30.40
2018-07-19T15:12:19.445Z,30.40
2018-07-19T15:14:49.052Z,30.40
2018-07-19T15:17:19.040Z,30.30
2018-07-19T15:19:48.717Z,30.30
2018-07-19T15:22:18.508Z,30.00
2018-07-19T15:24:48.522Z,29.90
2018-07-19T15:27:18.311Z,29.70
2018-07-19T15:29:48.935Z,29.80
2018-07-19T15:32:18.969Z,29.70
2018-07-19T15:34:48.668Z,29.50
2018-07-19T15:37:18.654Z,29.60
2018-07-19T15:39:48.440Z,29.70
2018-07-19T15:42:18.282Z,29.70
2018-07-19T15:44:48.335Z,29.60
2018-07-19T15:47:17.881Z,29.50
2018-07-19T15:49:47.480Z,29.40
2018-07-19T15:52:17.391Z,29.30
2018-07-19T15:54:47.244Z,29.30
2018-07-19T15:57:16.932Z,29.30
2018-07-19T15:59:47.237Z,29.30
2018-07-19T16:02:16.697Z,29.40
2018-07-19T16:04:47.376Z,29.30
2018-07-19T16:07:17.529Z,29.30
2018-07-19T16:09:47.099Z,29.30
2018-07-19T16:12:16.873Z,29.30
2018-07-19T16:14:46.585Z,29.30
2018-07-19T16:17:16.376Z,29.30
2018-07-19T16:19:46.167Z,29.20
2018-07-19T16:22:15.712Z,29.10
2018-07-19T16:24:45.707Z,29.00
2018-07-19T16:27:16.085Z,29.00
2018-07-19T16:29:45.752Z,28.90
2018-07-19T16:32:16.259Z,28.90
2018-07-19T16:34:45.970Z,28.90
2018-07-19T16:37:15.596Z,28.90
2018-07-19T16:39:45.948Z,28.90
2018-07-19T16:42:15.940Z,28.80
2018-07-19T16:44:45.565Z,28.80
2018-07-19T16:47:16.008Z,28.90
2018-07-19T16:49:46.014Z,28.70
2018-07-19T16:52:16.003Z,28.70
2018-07-19T16:54:45.656Z,28.70
2018-07-19T16:57:16.291Z,28.50
2018-07-19T16:59:46.821Z,28.50
2018-07-19T17:02:16.953Z,28.50
2018-07-19T17:04:46.594Z,28.60
2018-07-19T17:07:17.461Z,28.60
2018-07-19T17:09:47.329Z,28.50
2018-07-19T17:14:46.724Z,28.50
2018-07-19T17:17:16.722Z,28.60
2018-07-19T17:19:47.276Z,28.60
2018-07-19T17:22:17.812Z,28.50
2018-07-19T17:24:47.648Z,28.40
2018-07-19T17:27:18.252Z,28.30
2018-07-19T17:29:47.743Z,28.40
2018-07-19T17:32:17.945Z,28.40
2018-07-19T17:34:48.764Z,28.40
2018-07-19T17:37:19.478Z,28.40
2018-07-19T17:39:49.876Z,28.10
2018-07-19T17:42:19.701Z,28.10
2018-07-19T17:44:49.901Z,28.10
2018-07-19T17:47:19.679Z,28.10
2018-07-19T17:49:49.544Z,28.10
2018-07-19T17:52:19.494Z,28.10
2018-07-19T17:54:49.501Z,28.10
2018-07-19T17:57:19.274Z,28.10
2018-07-19T17:59:49.231Z,27.90
2018-07-19T18:02:19.188Z,27.90
2018-07-19T18:04:49.005Z,27.90
2018-07-19T18:07:18.931Z,27.80
2018-07-19T18:09:48.552Z,27.80
2018-07-19T18:12:19.109Z,27.70
2018-07-19T18:14:49.416Z,27.70
2018-07-19T18:17:19.509Z,27.70
2018-07-19T18:19:49.111Z,27.70
2018-07-19T18:22:19.012Z,27.70
2018-07-19T18:24:49.016Z,27.60
2018-07-19T18:27:18.649Z,27.50
2018-07-19T18:29:49.905Z,27.40
2018-07-19T18:32:19.884Z,27.40
2018-07-19T18:34:50.189Z,27.40
2018-07-19T18:37:20.560Z,27.40
2018-07-19T18:39:50.624Z,27.30
2018-07-19T18:42:20.919Z,27.30
2018-07-19T18:44:50.708Z,27.10
2018-07-19T18:47:20.753Z,27.10
2018-07-19T18:49:51.362Z,27.10
2018-07-19T18:52:21.601Z,27.10
2018-07-19T18:54:51.795Z,27.10
2018-07-19T18:57:22.642Z,27.20
2018-07-19T18:59:52.708Z,27.20
2018-07-19T19:02:23.335Z,27.20
2018-07-19T19:04:53.398Z,27.20
2018-07-19T19:07:23.545Z,27.10
2018-07-19T19:09:53.600Z,27.10
2018-07-19T19:12:23.170Z,26.90
2018-07-19T19:14:53.260Z,26.80
2018-07-19T19:17:23.377Z,26.90
2018-07-19T19:19:53.862Z,26.90
2018-07-19T19:22:25.346Z,27.00
2018-07-19T19:24:55.377Z,27.00
2018-07-19T19:27:26.012Z,27.00
2018-07-19T19:29:56.403Z,27.10
2018-07-19T19:32:26.565Z,27.10
2018-07-19T19:34:56.384Z,27.00
2018-07-19T19:37:26.512Z,27.00
2018-07-19T19:39:56.568Z,27.00
2018-07-19T19:42:27.226Z,26.90
2018-07-19T19:44:57.570Z,26.90
2018-07-19T19:47:27.315Z,26.90
2018-07-19T19:52:33.174Z,26.70
2018-07-19T19:55:03.554Z,26.60
2018-07-19T19:57:33.360Z,26.60
2018-07-19T20:00:04.330Z,26.70
2018-07-19T20:02:35.209Z,26.70
2018-07-19T20:05:05.133Z,26.70
2018-07-19T20:07:35.170Z,26.70
2018-07-19T20:10:05.426Z,26.70
2018-07-19T20:12:35.623Z,26.60
2018-07-19T20:15:05.692Z,26.50
2018-07-19T20:17:36.158Z,26.60
2018-07-19T20:20:06.779Z,26.60
2018-07-19T20:22:36.960Z,26.60
2018-07-19T20:25:07.524Z,26.50
2018-07-19T20:27:37.596Z,26.50
2018-07-19T20:30:07.940Z,26.50
2018-07-19T20:32:42.438Z,26.50
2018-07-19T20:35:12.529Z,26.50
2018-07-19T20:37:43.092Z,26.50
2018-07-19T20:40:13.624Z,26.60
2018-07-19T20:42:44.820Z,26.60
2018-07-19T20:45:15.372Z,26.60
2018-07-19T20:47:45.627Z,26.70
2018-07-19T20:50:15.397Z,26.60
2018-07-19T20:52:45.274Z,26.50
2018-07-19T20:55:15.297Z,26.60
2018-07-19T20:57:45.159Z,26.60
2018-07-19T21:00:16.885Z,26.40
2018-07-19T21:02:46.946Z,26.40
2018-07-19T21:05:18.231Z,26.40
2018-07-19T21:07:48.209Z,26.40
2018-07-19T21:10:19.788Z,26.50
2018-07-19T21:12:49.968Z,26.40
2018-07-19T21:15:21.370Z,26.40
2018-07-19T21:17:52.905Z,26.40
2018-07-19T21:20:23.127Z,26.40
2018-07-19T21:22:53.640Z,26.40
2018-07-19T21:25:23.696Z,26.40
2018-07-19T21:27:53.748Z,26.40
2018-07-19T21:30:23.540Z,26.40
2018-07-19T21:32:53.929Z,26.30
2018-07-19T21:35:24.244Z,26.10
2018-07-19T21:37:56.145Z,26.10
2018-07-19T21:40:25.609Z,26.10
2018-07-19T21:42:56.045Z,26.10
2018-07-19T21:45:25.917Z,26.10
2018-07-19T21:47:55.794Z,26.20
2018-07-19T21:50:25.852Z,26.20
2018-07-19T21:52:56.478Z,26.10
2018-07-19T21:55:26.042Z,26.20
2018-07-19T21:57:55.947Z,26.20
2018-07-19T22:00:29.664Z,26.10
2018-07-19T22:03:01.056Z,26.10
2018-07-19T22:05:30.636Z,26.10
2018-07-19T22:08:00.202Z,26.10
2018-07-19T22:10:30.248Z,26.00
2018-07-19T22:12:59.712Z,26.00
2018-07-19T22:15:29.768Z,26.00
2018-07-19T22:18:00.232Z,26.00
2018-07-19T22:20:30.114Z,26.00
2018-07-19T22:22:59.736Z,26.00
2018-07-19T22:25:29.371Z,26.00
2018-07-19T22:27:59.235Z,26.00
2018-07-19T22:30:28.948Z,25.90
2018-07-19T22:32:59.550Z,25.90
2018-07-19T22:35:29.428Z,25.90
2018-07-19T22:37:59.246Z,25.90
2018-07-19T22:40:28.791Z,25.80
2018-07-19T22:42:58.702Z,25.80
2018-07-19T22:45:29.884Z,25.80
2018-07-19T22:47:59.862Z,25.90
2018-07-19T22:50:29.398Z,25.90
2018-07-19T22:52:59.576Z,25.90
2018-07-19T22:55:30.579Z,25.90
2018-07-19T22:58:00.329Z,25.80
2018-07-19T23:00:30.019Z,25.90
2018-07-19T23:03:00.920Z,25.80
2018-07-19T23:05:31.428Z,25.80
2018-07-19T23:08:01.444Z,25.70
2018-07-19T23:10:31.831Z,25.60
2018-07-19T23:13:01.377Z,25.60
2018-07-19T23:15:30.956Z,25.60
2018-07-19T23:18:01.304Z,25.60
2018-07-19T23:20:31.167Z,25.70
2018-07-19T23:23:02.694Z,25.70
2018-07-19T23:25:32.172Z,25.70
2018-07-19T23:28:02.904Z,25.60
2018-07-19T23:30:35.324Z,25.60
2018-07-19T23:33:05.279Z,25.60
2018-07-19T23:35:42.713Z,25.60
2018-07-19T23:38:18.223Z,25.60
2018-07-19T23:40:50.529Z,25.50
2018-07-19T23:43:26.279Z,25.50
2018-07-19T23:46:05.176Z,25.50
2018-07-19T23:48:36.031Z,25.50
2018-07-19T23:51:09.245Z,25.50
2018-07-19T23:53:40.276Z,25.50
2018-07-19T23:56:09.872Z,25.50
2018-07-19T23:58:40.032Z,25.50
